createdAt,value
2019-03-15T00:00:55.232Z,980.38
2019-03-15T00:01:55.321Z,980.39
2019-03-15T00:02:55.410Z,980.33
2019-03-15T00:03:55.498Z,980.32
2019-03-15T00:04:55.589Z,980.36
2019-03-15T00:05:55.683Z,980.44
2019-03-15T00:06:55.769Z,980.46
2019-03-15T00:07:55.859Z,980.57
2019-03-15T00:08:55.949Z,980.51
2019-03-15T00:09:56.039Z,980.55
2019-03-15T00:10:56.126Z,980.54
2019-03-15T00:11:56.215Z,980.53
2019-03-15T00:12:56.296Z,980.52
2019-03-15T00:13:56.382Z,980.50
2019-03-15T00:14:56.474Z,980.49
2019-03-15T00:15:56.561Z,980.55
2019-03-15T00:16:56.648Z,980.53
2019-03-15T00:17:56.742Z,980.54
2019-03-15T00:18:56.828Z,980.48
2019-03-15T00:19:56.916Z,980.52
2019-03-15T00:20:57.009Z,980.49
2019-03-15T00:21:57.097Z,980.55
2019-03-15T00:22:57.184Z,980.52
2019-03-15T00:23:57.271Z,980.49
2019-03-15T00:24:57.361Z,980.52
2019-03-15T00:25:57.450Z,980.57
2019-03-15T00:26:57.543Z,980.58
2019-03-15T00:27:57.628Z,980.58
2019-03-15T00:28:57.725Z,980.67
2019-03-15T00:29:57.812Z,980.65
2019-03-15T00:30:57.899Z,980.66
2019-03-15T00:31:57.994Z,980.64
2019-03-15T00:32:58.580Z,980.65
2019-03-15T00:33:58.173Z,980.65
2019-03-15T00:34:58.262Z,980.68
2019-03-15T00:35:58.352Z,980.67
2019-03-15T00:36:58.441Z,980.73
2019-03-15T00:37:58.576Z,980.72
2019-03-15T00:38:58.615Z,980.80
2019-03-15T00:39:58.701Z,980.80
2019-03-15T00:40:58.790Z,980.87
2019-03-15T00:41:58.878Z,980.95
2019-03-15T00:42:58.967Z,981.00
2019-03-15T00:43:59.050Z,981.00
2019-03-15T00:44:59.146Z,980.96
2019-03-15T00:45:59.234Z,981.00
2019-03-15T00:46:59.325Z,981.07
2019-03-15T00:47:59.412Z,981.08
2019-03-15T00:48:59.502Z,981.03
2019-03-15T00:49:59.591Z,980.99
2019-03-15T00:50:59.670Z,981.04
2019-03-15T00:51:59.761Z,981.06
2019-03-15T00:52:59.852Z,981.04
2019-03-15T00:53:59.941Z,981.08
2019-03-15T00:55:00.034Z,981.03
2019-03-15T00:56:00.142Z,981.05
2019-03-15T00:57:00.229Z,981.02
2019-03-15T00:58:00.318Z,981.00
2019-03-15T00:59:00.407Z,980.98
2019-03-15T01:00:00.497Z,980.96
2019-03-15T01:01:00.589Z,980.95
2019-03-15T01:02:00.677Z,981.01
2019-03-15T01:03:00.763Z,981.07
2019-03-15T01:04:00.852Z,981.10
2019-03-15T01:05:00.933Z,981.05
2019-03-15T01:06:01.040Z,981.14
2019-03-15T01:07:01.129Z,981.12
2019-03-15T01:08:01.217Z,981.10
2019-03-15T01:09:01.295Z,981.15
2019-03-15T01:10:01.381Z,981.16
2019-03-15T01:11:01.471Z,981.14
2019-03-15T01:12:01.560Z,981.14
2019-03-15T01:13:01.651Z,981.12
2019-03-15T01:14:01.736Z,981.07
2019-03-15T01:15:01.825Z,981.04
2019-03-15T01:16:01.917Z,981.03
2019-03-15T01:17:02.003Z,981.10
2019-03-15T01:18:02.093Z,981.08
2019-03-15T01:19:02.183Z,981.07
2019-03-15T01:20:02.848Z,981.07
2019-03-15T01:21:02.385Z,981.09
2019-03-15T01:22:02.475Z,981.10
2019-03-15T01:23:02.562Z,981.09
2019-03-15T01:24:02.657Z,981.13
2019-03-15T01:25:02.746Z,981.16
2019-03-15T01:26:02.837Z,981.25
2019-03-15T01:27:02.926Z,981.25
2019-03-15T01:28:03.035Z,981.14
2019-03-15T01:29:03.099Z,981.17
2019-03-15T01:30:03.189Z,981.12
2019-03-15T01:31:03.280Z,981.10
2019-03-15T01:32:03.365Z,981.09
2019-03-15T01:33:03.457Z,981.08
2019-03-15T01:34:03.546Z,981.09
2019-03-15T01:35:03.636Z,981.12
2019-03-15T01:36:03.725Z,981.21
2019-03-15T01:37:03.820Z,981.23
2019-03-15T01:38:03.914Z,981.22
2019-03-15T01:39:04.001Z,981.22
2019-03-15T01:40:04.090Z,981.25
2019-03-15T01:41:04.351Z,981.23
2019-03-15T01:42:04.276Z,981.24
2019-03-15T01:43:04.366Z,981.23
2019-03-15T01:44:04.447Z,981.24
2019-03-15T01:45:04.538Z,981.25
2019-03-15T01:46:04.629Z,981.28
2019-03-15T01:47:04.722Z,981.26
2019-03-15T01:48:05.088Z,981.24
2019-03-15T01:49:04.895Z,981.24
2019-03-15T01:50:04.991Z,981.26
2019-03-15T01:51:05.067Z,981.22
2019-03-15T01:52:05.159Z,981.22
2019-03-15T01:53:05.245Z,981.25
2019-03-15T01:54:05.338Z,981.27
2019-03-15T01:55:05.428Z,981.31
2019-03-15T01:56:05.512Z,981.30
2019-03-15T01:57:05.606Z,981.33
2019-03-15T01:58:05.693Z,981.28
2019-03-15T01:59:05.781Z,981.28
2019-03-15T02:00:05.874Z,981.27
2019-03-15T02:01:05.964Z,981.23
2019-03-15T02:02:06.051Z,981.19
2019-03-15T02:03:06.140Z,981.20
2019-03-15T02:04:06.229Z,981.19
2019-03-15T02:05:06.318Z,981.12
2019-03-15T02:06:06.414Z,981.18
2019-03-15T02:07:06.502Z,981.14
2019-03-15T02:08:06.598Z,981.15
2019-03-15T02:09:09.326Z,981.16
2019-03-15T02:10:06.773Z,981.19
2019-03-15T02:11:06.880Z,981.20
2019-03-15T02:12:06.963Z,981.18
2019-03-15T02:13:07.062Z,981.21
2019-03-15T02:14:07.152Z,981.19
2019-03-15T02:15:07.241Z,981.25
2019-03-15T02:16:07.334Z,981.18
2019-03-15T02:17:07.425Z,981.20
2019-03-15T02:18:07.510Z,981.23
2019-03-15T02:19:07.598Z,981.28
2019-03-15T02:20:07.688Z,981.22
2019-03-15T02:21:07.777Z,981.23
2019-03-15T02:22:08.440Z,981.21
2019-03-15T02:23:07.958Z,981.22
2019-03-15T02:24:08.049Z,981.26
2019-03-15T02:25:08.197Z,981.25
2019-03-15T02:26:08.228Z,981.22
2019-03-15T02:27:08.319Z,981.27
2019-03-15T02:28:08.406Z,981.28
2019-03-15T02:29:08.495Z,981.31
2019-03-15T02:30:08.655Z,981.31
2019-03-15T02:31:08.674Z,981.36
2019-03-15T02:32:08.763Z,981.33
2019-03-15T02:33:08.850Z,981.28
2019-03-15T02:34:08.947Z,981.27
2019-03-15T02:35:09.015Z,981.20
2019-03-15T02:36:09.102Z,981.18
2019-03-15T02:37:09.193Z,981.17
2019-03-15T02:38:09.281Z,981.19
2019-03-15T02:39:09.370Z,981.21
2019-03-15T02:40:09.469Z,981.15
2019-03-15T02:41:09.545Z,981.14
2019-03-15T02:42:09.639Z,981.18
2019-03-15T02:43:10.020Z,981.20
2019-03-15T02:44:09.817Z,981.16
2019-03-15T02:45:09.906Z,981.13
2019-03-15T02:46:09.996Z,981.15
2019-03-15T02:47:10.085Z,981.14
2019-03-15T02:48:10.174Z,981.23
2019-03-15T02:49:10.265Z,981.20
2019-03-15T02:50:10.354Z,981.23
2019-03-15T02:51:10.442Z,981.28
2019-03-15T02:52:10.522Z,981.25
2019-03-15T02:53:10.615Z,981.26
2019-03-15T02:54:10.703Z,981.26
2019-03-15T02:55:10.794Z,981.32
2019-03-15T02:56:10.880Z,981.33
2019-03-15T02:57:10.973Z,981.44
2019-03-15T02:58:11.041Z,981.42
2019-03-15T02:59:11.145Z,981.44
2019-03-15T03:00:11.219Z,981.43
2019-03-15T03:01:11.304Z,981.45
2019-03-15T03:02:11.392Z,981.50
2019-03-15T03:03:11.482Z,981.43
2019-03-15T03:04:11.571Z,981.46
2019-03-15T03:05:11.661Z,981.47
2019-03-15T03:06:11.766Z,981.48
2019-03-15T03:07:11.844Z,981.47
2019-03-15T03:08:11.932Z,981.49
2019-03-15T03:09:12.027Z,981.52
2019-03-15T03:10:12.119Z,981.55
2019-03-15T03:11:12.209Z,981.57
2019-03-15T03:12:12.298Z,981.53
2019-03-15T03:13:12.389Z,981.54
2019-03-15T03:14:12.475Z,981.46
2019-03-15T03:15:12.564Z,981.52
2019-03-15T03:16:12.651Z,981.47
2019-03-15T03:17:13.209Z,981.54
2019-03-15T03:18:12.825Z,981.55
2019-03-15T03:19:12.917Z,981.53
2019-03-15T03:20:13.037Z,981.53
2019-03-15T03:21:13.275Z,981.54
2019-03-15T03:22:13.179Z,981.58
2019-03-15T03:23:13.277Z,981.59
2019-03-15T03:24:13.357Z,981.55
2019-03-15T03:25:13.449Z,981.55
2019-03-15T03:26:13.720Z,981.56
2019-03-15T03:27:13.624Z,981.56
2019-03-15T03:28:13.702Z,981.57
2019-03-15T03:29:13.808Z,981.58
2019-03-15T03:30:16.445Z,981.59
2019-03-15T03:31:15.631Z,981.61
2019-03-15T03:32:14.519Z,981.63
2019-03-15T03:33:14.384Z,981.59
2019-03-15T03:34:14.275Z,981.63
2019-03-15T03:35:14.352Z,981.65
2019-03-15T03:36:14.432Z,981.67
2019-03-15T03:37:14.516Z,981.68
2019-03-15T03:38:14.604Z,981.66
2019-03-15T03:39:14.696Z,981.65
2019-03-15T03:40:14.788Z,981.67
2019-03-15T03:41:14.876Z,981.64
2019-03-15T03:42:14.972Z,981.59
2019-03-15T03:43:15.069Z,981.55
2019-03-15T03:44:15.161Z,981.61
2019-03-15T03:45:15.247Z,981.53
2019-03-15T03:46:15.334Z,981.49
2019-03-15T03:47:15.420Z,981.53
2019-03-15T03:48:15.995Z,981.56
2019-03-15T03:49:15.615Z,981.57
2019-03-15T03:50:15.687Z,981.63
2019-03-15T03:51:15.776Z,981.64
2019-03-15T03:52:15.866Z,981.62
2019-03-15T03:53:15.948Z,981.63
2019-03-15T03:54:16.034Z,981.72
2019-03-15T03:55:16.124Z,981.72
2019-03-15T03:56:16.311Z,981.77
2019-03-15T03:57:16.302Z,981.76
2019-03-15T03:58:16.391Z,981.76
2019-03-15T03:59:16.531Z,981.77
2019-03-15T04:00:16.575Z,981.82
2019-03-15T04:01:16.664Z,981.82
2019-03-15T04:02:16.754Z,981.77
2019-03-15T04:03:16.843Z,981.79
2019-03-15T04:04:16.954Z,981.81
2019-03-15T04:05:17.023Z,981.83
2019-03-15T04:06:17.115Z,981.79
2019-03-15T04:07:17.203Z,981.74
2019-03-15T04:08:17.293Z,981.76
2019-03-15T04:09:17.383Z,981.74
2019-03-15T04:10:17.470Z,981.77
2019-03-15T04:11:17.560Z,981.77
2019-03-15T04:12:17.652Z,981.82
2019-03-15T04:13:17.740Z,981.75
2019-03-15T04:14:17.832Z,981.91
2019-03-15T04:15:17.927Z,981.79
2019-03-15T04:16:18.011Z,981.87
2019-03-15T04:17:18.102Z,981.80
2019-03-15T04:18:18.187Z,981.81
2019-03-15T04:19:18.272Z,981.76
2019-03-15T04:20:18.366Z,981.78
2019-03-15T04:21:18.453Z,981.71
2019-03-15T04:22:18.535Z,981.67
2019-03-15T04:23:18.625Z,981.60
2019-03-15T04:24:18.716Z,981.59
2019-03-15T04:25:18.807Z,981.71
2019-03-15T04:26:18.904Z,981.66
2019-03-15T04:27:19.000Z,981.71
2019-03-15T04:28:19.139Z,981.75
2019-03-15T04:29:19.172Z,981.81
2019-03-15T04:30:19.283Z,981.80
2019-03-15T04:31:19.371Z,981.81
2019-03-15T04:32:19.465Z,981.87
2019-03-15T04:33:19.555Z,981.89
2019-03-15T04:34:19.639Z,981.88
2019-03-15T04:35:19.730Z,981.89
2019-03-15T04:36:19.823Z,981.89
2019-03-15T04:37:22.695Z,981.84
2019-03-15T04:38:19.989Z,981.80
2019-03-15T04:39:20.099Z,981.78
2019-03-15T04:40:20.168Z,981.77
2019-03-15T04:41:20.263Z,981.78
2019-03-15T04:42:20.347Z,981.74
2019-03-15T04:43:20.431Z,981.74
2019-03-15T04:44:20.519Z,981.78
2019-03-15T04:45:20.612Z,981.77
2019-03-15T04:46:20.703Z,981.83
2019-03-15T04:47:20.792Z,981.78
2019-03-15T04:48:20.882Z,981.79
2019-03-15T04:49:20.966Z,981.84
2019-03-15T04:50:21.046Z,981.85
2019-03-15T04:51:21.138Z,981.82
2019-03-15T04:52:21.227Z,981.83
2019-03-15T04:53:21.317Z,981.78
2019-03-15T04:54:21.407Z,981.81
2019-03-15T04:55:21.500Z,981.83
2019-03-15T04:56:21.587Z,981.87
2019-03-15T04:57:21.678Z,981.85
2019-03-15T04:58:21.766Z,981.83
2019-03-15T04:59:24.010Z,981.86
2019-03-15T05:00:21.941Z,981.88
2019-03-15T05:01:22.038Z,981.83
2019-03-15T05:02:22.128Z,981.82
2019-03-15T05:03:22.218Z,981.82
2019-03-15T05:04:22.311Z,981.82
2019-03-15T05:05:22.398Z,981.79
2019-03-15T05:06:22.490Z,981.79
2019-03-15T05:07:22.578Z,981.81
2019-03-15T05:08:22.666Z,981.80
2019-03-15T05:09:22.754Z,981.79
2019-03-15T05:10:22.844Z,981.80
2019-03-15T05:11:22.948Z,981.75
2019-03-15T05:12:23.058Z,981.76
2019-03-15T05:13:23.154Z,981.75
2019-03-15T05:14:23.263Z,981.72
2019-03-15T05:15:23.447Z,981.68
2019-03-15T05:16:23.443Z,981.72
2019-03-15T05:17:23.534Z,981.74
2019-03-15T05:18:23.619Z,981.75
2019-03-15T05:19:23.709Z,981.69
2019-03-15T05:20:23.806Z,981.69
2019-03-15T05:21:23.892Z,981.65
2019-03-15T05:22:23.978Z,981.66
2019-03-15T05:23:24.072Z,981.65
2019-03-15T05:24:24.158Z,981.68
2019-03-15T05:25:24.247Z,981.70
2019-03-15T05:26:24.339Z,981.69
2019-03-15T05:27:24.422Z,981.71
2019-03-15T05:28:24.624Z,981.73
2019-03-15T05:29:24.606Z,981.72
2019-03-15T05:30:24.694Z,981.76
2019-03-15T05:31:24.781Z,981.82
2019-03-15T05:32:24.872Z,981.84
2019-03-15T05:33:24.984Z,981.90
2019-03-15T05:34:25.053Z,981.88
2019-03-15T05:35:25.139Z,981.90
2019-03-15T05:36:25.229Z,981.98
2019-03-15T05:37:25.321Z,981.89
2019-03-15T05:38:25.409Z,981.92
2019-03-15T05:39:25.513Z,981.93
2019-03-15T05:40:25.602Z,981.98
2019-03-15T05:41:25.693Z,982.04
2019-03-15T05:42:25.785Z,981.97
2019-03-15T05:43:25.880Z,982.00
2019-03-15T05:44:25.975Z,981.98
2019-03-15T05:45:26.063Z,981.98
2019-03-15T05:46:26.151Z,982.03
2019-03-15T05:47:26.238Z,982.05
2019-03-15T05:48:26.329Z,982.04
2019-03-15T05:49:26.434Z,982.02
2019-03-15T05:50:26.521Z,982.03
2019-03-15T05:51:26.598Z,982.03
2019-03-15T05:52:26.691Z,982.07
2019-03-15T05:53:26.779Z,982.08
2019-03-15T05:54:26.863Z,982.08
2019-03-15T05:55:26.952Z,982.01
2019-03-15T05:56:27.028Z,982.03
2019-03-15T05:57:27.122Z,982.05
2019-03-15T05:58:27.208Z,982.07
2019-03-15T05:59:27.298Z,982.02
2019-03-15T06:00:27.388Z,982.10
2019-03-15T06:01:27.478Z,982.06
2019-03-15T06:02:27.568Z,982.09
2019-03-15T06:03:27.661Z,982.07
2019-03-15T06:04:27.758Z,982.04
2019-03-15T06:05:27.912Z,981.99
2019-03-15T06:06:27.926Z,981.99
2019-03-15T06:07:28.014Z,981.96
2019-03-15T06:08:28.106Z,981.97
2019-03-15T06:09:28.193Z,981.99
2019-03-15T06:10:28.292Z,982.00
2019-03-15T06:11:28.376Z,981.98
2019-03-15T06:12:28.482Z,981.98
2019-03-15T06:13:28.559Z,982.04
2019-03-15T06:14:28.648Z,982.02
2019-03-15T06:15:28.739Z,982.01
2019-03-15T06:16:28.831Z,982.05
2019-03-15T06:17:28.955Z,982.02
2019-03-15T06:18:29.011Z,982.00
2019-03-15T06:19:29.091Z,982.03
2019-03-15T06:20:29.184Z,981.98
2019-03-15T06:21:29.262Z,981.99
2019-03-15T06:22:29.355Z,981.95
2019-03-15T06:23:29.446Z,981.98
2019-03-15T06:24:29.541Z,981.98
2019-03-15T06:25:29.626Z,981.95
2019-03-15T06:26:29.719Z,981.99
2019-03-15T06:27:31.159Z,981.94
2019-03-15T06:28:29.900Z,981.93
2019-03-15T06:29:30.005Z,981.93
2019-03-15T06:30:30.095Z,981.98
2019-03-15T06:31:30.189Z,982.00
2019-03-15T06:32:30.282Z,982.05
2019-03-15T06:33:30.366Z,981.96
2019-03-15T06:34:30.466Z,981.89
2019-03-15T06:35:30.551Z,981.89
2019-03-15T06:36:30.644Z,981.90
2019-03-15T06:37:30.729Z,981.91
2019-03-15T06:38:33.450Z,981.88
2019-03-15T06:39:30.913Z,981.86
2019-03-15T06:40:31.837Z,981.85
2019-03-15T06:41:31.111Z,981.80
2019-03-15T06:42:31.209Z,981.76
2019-03-15T06:43:31.293Z,981.74
2019-03-15T06:44:31.384Z,981.76
2019-03-15T06:45:32.025Z,981.68
2019-03-15T06:46:31.566Z,981.64
2019-03-15T06:47:31.657Z,981.68
2019-03-15T06:48:31.747Z,981.61
2019-03-15T06:49:31.846Z,981.63
2019-03-15T06:50:31.931Z,981.58
2019-03-15T06:51:32.021Z,981.58
2019-03-15T06:52:32.106Z,981.50
2019-03-15T06:53:32.196Z,981.55
2019-03-15T06:54:32.290Z,981.56
2019-03-15T06:55:32.382Z,981.59
2019-03-15T06:56:32.467Z,981.51
2019-03-15T06:57:32.571Z,981.55
2019-03-15T06:58:32.648Z,981.57
2019-03-15T06:59:32.742Z,981.63
2019-03-15T07:00:32.832Z,981.54
2019-03-15T07:01:32.925Z,981.53
2019-03-15T07:02:33.013Z,981.57
2019-03-15T07:03:33.141Z,981.53
2019-03-15T07:04:33.234Z,981.54
2019-03-15T07:05:33.323Z,981.51
2019-03-15T07:06:33.417Z,981.52
2019-03-15T07:07:33.547Z,981.49
2019-03-15T07:08:33.602Z,981.48
2019-03-15T07:09:33.699Z,981.45
2019-03-15T07:10:33.785Z,981.43
2019-03-15T07:11:33.880Z,981.41
2019-03-15T07:12:33.973Z,981.39
2019-03-15T07:13:34.070Z,981.43
2019-03-15T07:14:34.150Z,981.46
2019-03-15T07:15:34.246Z,981.39
2019-03-15T07:16:34.337Z,981.44
2019-03-15T07:17:34.431Z,981.40
2019-03-15T07:18:35.495Z,981.40
2019-03-15T07:19:34.626Z,981.41
2019-03-15T07:20:34.717Z,981.38
2019-03-15T07:21:36.830Z,981.39
2019-03-15T07:22:34.900Z,981.44
2019-03-15T07:23:35.047Z,981.44
2019-03-15T07:24:35.091Z,981.43
2019-03-15T07:25:35.168Z,981.44
2019-03-15T07:26:35.269Z,981.49
2019-03-15T07:27:35.364Z,981.49
2019-03-15T07:28:35.453Z,981.47
2019-03-15T07:29:35.544Z,981.39
2019-03-15T07:30:35.633Z,981.39
2019-03-15T07:31:35.721Z,981.39
2019-03-15T07:32:35.811Z,981.37
2019-03-15T07:33:35.922Z,981.35
2019-03-15T07:34:36.012Z,981.40
2019-03-15T07:35:36.998Z,981.32
2019-03-15T07:36:37.399Z,981.34
2019-03-15T07:37:36.317Z,981.34
2019-03-15T07:38:36.408Z,981.37
2019-03-15T07:39:36.503Z,981.37
2019-03-15T07:40:36.595Z,981.31
2019-03-15T07:41:36.688Z,981.25
2019-03-15T07:42:36.780Z,981.27
2019-03-15T07:43:36.875Z,981.25
2019-03-15T07:44:36.960Z,981.23
2019-03-15T07:45:37.080Z,981.26
2019-03-15T07:46:37.133Z,981.23
2019-03-15T07:47:37.222Z,981.23
2019-03-15T07:48:37.317Z,981.27
2019-03-15T07:49:37.408Z,981.26
2019-03-15T07:50:37.498Z,981.30
2019-03-15T07:51:37.591Z,981.29
2019-03-15T07:52:37.683Z,981.28
2019-03-15T07:53:37.776Z,981.30
2019-03-15T07:54:38.599Z,981.29
2019-03-15T07:55:37.963Z,981.31
2019-03-15T07:56:38.055Z,981.25
2019-03-15T07:57:38.146Z,981.24
2019-03-15T07:58:38.238Z,981.33
2019-03-15T07:59:38.332Z,981.33
2019-03-15T08:00:38.423Z,981.25
2019-03-15T08:01:38.508Z,981.26
2019-03-15T08:02:38.610Z,981.24
2019-03-15T08:03:38.704Z,981.23
2019-03-15T08:04:38.793Z,981.26
2019-03-15T08:05:38.895Z,981.25
2019-03-15T08:06:38.982Z,981.33
2019-03-15T08:07:44.745Z,981.29
2019-03-15T08:08:39.250Z,981.24
2019-03-15T08:09:39.250Z,981.28
2019-03-15T08:10:39.368Z,981.19
2019-03-15T08:11:39.437Z,981.16
2019-03-15T08:12:39.531Z,981.18
2019-03-15T08:13:39.620Z,981.21
2019-03-15T08:14:39.735Z,981.19
2019-03-15T08:15:39.828Z,981.20
2019-03-15T08:16:39.921Z,981.20
2019-03-15T08:17:40.019Z,981.20
2019-03-15T08:18:40.105Z,981.15
2019-03-15T08:19:40.199Z,981.14
2019-03-15T08:20:40.290Z,981.17
2019-03-15T08:21:40.386Z,981.15
2019-03-15T08:22:40.591Z,981.10
2019-03-15T08:23:40.571Z,981.10
2019-03-15T08:24:51.012Z,981.06
2019-03-15T08:25:40.763Z,981.13
2019-03-15T08:26:40.852Z,981.12
2019-03-15T08:27:40.951Z,981.14
2019-03-15T08:28:41.071Z,981.13
2019-03-15T08:29:41.135Z,981.09
2019-03-15T08:30:41.228Z,981.05
2019-03-15T08:31:41.318Z,981.13
2019-03-15T08:32:43.292Z,981.16
2019-03-15T08:33:41.510Z,981.16
2019-03-15T08:34:41.593Z,981.08
2019-03-15T08:35:41.692Z,981.15
2019-03-15T08:36:41.779Z,981.13
2019-03-15T08:37:41.879Z,981.15
2019-03-15T08:38:47.250Z,981.11
2019-03-15T08:39:42.056Z,981.11
2019-03-15T08:40:42.148Z,981.11
2019-03-15T08:41:42.237Z,981.14
2019-03-15T08:42:42.327Z,981.08
2019-03-15T08:43:42.741Z,981.12
2019-03-15T08:44:42.517Z,981.09
2019-03-15T08:45:42.608Z,980.99
2019-03-15T08:46:42.698Z,980.99
2019-03-15T08:47:42.798Z,980.93
2019-03-15T08:48:42.878Z,980.94
2019-03-15T08:49:42.982Z,980.92
2019-03-15T08:50:43.070Z,980.90
2019-03-15T08:51:43.165Z,980.89
2019-03-15T08:52:43.253Z,980.89
2019-03-15T08:53:43.338Z,980.93
2019-03-15T08:54:46.474Z,980.85
2019-03-15T08:55:43.526Z,980.84
2019-03-15T08:56:43.625Z,980.85
2019-03-15T08:57:43.721Z,980.92
2019-03-15T08:58:43.808Z,980.93
2019-03-15T08:59:56.634Z,980.88
2019-03-15T09:00:44.016Z,980.96
2019-03-15T09:01:44.111Z,980.95
2019-03-15T09:02:44.219Z,980.90
2019-03-15T09:03:44.291Z,980.86
2019-03-15T09:04:44.386Z,980.91
2019-03-15T09:05:44.474Z,980.92
2019-03-15T09:06:44.566Z,980.84
2019-03-15T09:07:44.674Z,980.84
2019-03-15T09:08:44.766Z,980.90
2019-03-15T09:09:44.854Z,980.94
2019-03-15T09:10:44.945Z,980.90
2019-03-15T09:11:45.036Z,980.83
2019-03-15T09:12:45.145Z,980.99
2019-03-15T09:13:45.236Z,980.90
2019-03-15T09:14:45.325Z,980.94
2019-03-15T09:15:45.417Z,980.95
2019-03-15T09:16:45.509Z,980.99
2019-03-15T09:17:45.606Z,980.93
2019-03-15T09:18:45.695Z,980.97
2019-03-15T09:19:45.811Z,981.04
2019-03-15T09:20:45.882Z,981.01
2019-03-15T09:21:45.976Z,981.06
2019-03-15T09:22:46.064Z,980.98
2019-03-15T09:23:46.158Z,981.00
2019-03-15T09:24:46.254Z,980.92
2019-03-15T09:25:46.368Z,980.95
2019-03-15T09:26:46.451Z,981.00
2019-03-15T09:27:46.546Z,980.95
2019-03-15T09:28:46.646Z,980.90
2019-03-15T09:29:46.735Z,980.92
2019-03-15T09:30:46.826Z,980.90
2019-03-15T09:31:48.365Z,980.90
2019-03-15T09:32:47.002Z,980.95
2019-03-15T09:33:47.124Z,980.82
2019-03-15T09:34:47.191Z,980.78
2019-03-15T09:35:47.286Z,980.70
2019-03-15T09:36:50.493Z,980.66
2019-03-15T09:37:47.957Z,980.60
2019-03-15T09:38:47.562Z,980.55
2019-03-15T09:39:47.658Z,980.55
2019-03-15T09:40:47.748Z,980.63
2019-03-15T09:41:47.843Z,980.55
2019-03-15T09:42:47.936Z,980.54
2019-03-15T09:43:48.032Z,980.51
2019-03-15T09:47:16.142Z,980.48
2019-03-15T09:48:10.221Z,980.45
2019-03-15T09:49:09.197Z,980.42
2019-03-15T09:50:20.990Z,980.36
2019-03-15T09:51:09.394Z,980.37
2019-03-15T09:52:09.484Z,980.37
2019-03-15T09:53:09.565Z,980.39
2019-03-15T09:54:09.659Z,980.39
2019-03-15T09:55:09.749Z,980.35
2019-03-15T09:56:09.841Z,980.27
2019-03-15T09:57:09.927Z,980.28
2019-03-15T09:58:10.024Z,980.28
2019-03-15T09:59:10.111Z,980.26
2019-03-15T10:00:10.202Z,980.24
2019-03-15T10:01:10.538Z,980.26
2019-03-15T10:02:10.378Z,980.26
2019-03-15T10:03:21.575Z,980.29
2019-03-15T10:04:10.561Z,980.25
2019-03-15T10:05:11.751Z,980.22
2019-03-15T10:06:15.804Z,980.28
2019-03-15T10:07:10.915Z,980.27
2019-03-15T10:08:11.098Z,980.17
2019-03-15T10:09:11.073Z,980.19
2019-03-15T10:10:13.884Z,980.27
2019-03-15T10:11:11.238Z,980.33
2019-03-15T10:12:11.328Z,980.25
2019-03-15T10:13:11.423Z,980.19
2019-03-15T10:14:11.510Z,980.19
2019-03-15T10:15:11.597Z,980.21
2019-03-15T10:16:11.686Z,980.18
2019-03-15T10:17:11.776Z,980.24
2019-03-15T10:18:11.869Z,980.32
2019-03-15T10:19:11.968Z,980.18
2019-03-15T10:20:12.655Z,980.21
2019-03-15T10:21:12.156Z,980.13
2019-03-15T10:22:12.245Z,980.12
2019-03-15T10:23:12.336Z,980.11
2019-03-15T10:24:15.495Z,980.05
2019-03-15T10:25:12.518Z,980.04
2019-03-15T10:26:14.980Z,979.98
2019-03-15T10:27:12.748Z,980.05
2019-03-15T10:28:12.804Z,980.00
2019-03-15T10:29:15.642Z,980.03
2019-03-15T10:30:12.976Z,979.99
2019-03-15T10:31:13.055Z,979.98
2019-03-15T10:32:13.146Z,979.99
2019-03-15T10:33:13.257Z,980.00
2019-03-15T10:34:13.351Z,980.06
2019-03-15T10:35:13.405Z,980.07
2019-03-15T10:36:13.496Z,980.07
2019-03-15T10:37:13.587Z,979.99
2019-03-15T10:38:16.557Z,980.01
2019-03-15T10:39:13.773Z,979.95
2019-03-15T10:40:13.855Z,979.86
2019-03-15T10:41:13.954Z,979.88
2019-03-15T10:42:14.049Z,979.90
2019-03-15T10:43:14.126Z,979.93
2019-03-15T10:44:14.236Z,979.85
2019-03-15T10:45:14.347Z,979.86
2019-03-15T10:46:14.427Z,979.86
2019-03-15T10:47:14.610Z,979.87
2019-03-15T10:48:24.529Z,979.91
2019-03-15T10:49:14.759Z,979.93
2019-03-15T10:50:14.806Z,980.00
2019-03-15T10:51:14.902Z,979.96
2019-03-15T10:52:15.117Z,979.96
2019-03-15T10:53:15.144Z,979.93
2019-03-15T10:54:15.232Z,979.89
2019-03-15T10:55:15.339Z,979.87
2019-03-15T10:56:15.422Z,979.84
2019-03-15T10:57:15.514Z,979.89
2019-03-15T10:58:15.607Z,979.86
2019-03-15T10:59:15.701Z,979.84
2019-03-15T11:00:15.788Z,979.78
2019-03-15T11:01:15.880Z,979.74
2019-03-15T11:02:15.969Z,979.70
2019-03-15T11:03:16.061Z,979.70
2019-03-15T11:04:16.154Z,979.71
2019-03-15T11:05:16.340Z,979.72
2019-03-15T11:06:16.337Z,979.70
2019-03-15T11:07:16.429Z,979.75
2019-03-15T11:08:16.521Z,979.79
2019-03-15T11:09:16.611Z,979.80
2019-03-15T11:10:16.704Z,979.78
2019-03-15T11:11:16.824Z,979.89
2019-03-15T11:12:16.982Z,979.81
2019-03-15T11:13:17.013Z,979.69
2019-03-15T11:14:17.103Z,979.67
2019-03-15T11:15:17.287Z,979.60
2019-03-15T11:16:17.283Z,979.58
2019-03-15T11:17:17.391Z,979.61
2019-03-15T11:18:17.463Z,979.56
2019-03-15T11:19:17.554Z,979.64
2019-03-15T11:20:17.645Z,979.68
2019-03-15T11:21:17.732Z,979.76
2019-03-15T11:22:17.820Z,979.80
2019-03-15T11:23:17.911Z,979.81
2019-03-15T11:24:18.008Z,979.81
2019-03-15T11:25:18.107Z,979.76
2019-03-15T11:26:18.195Z,979.77
2019-03-15T11:27:18.282Z,979.71
2019-03-15T11:28:18.377Z,979.66
2019-03-15T11:29:18.469Z,979.61
2019-03-15T11:30:18.570Z,979.68
2019-03-15T11:31:18.686Z,979.62
2019-03-15T11:32:18.856Z,979.60
2019-03-15T11:33:18.882Z,979.58
2019-03-15T11:34:19.053Z,979.63
2019-03-15T11:35:21.285Z,979.56
2019-03-15T11:36:19.151Z,979.58
2019-03-15T11:37:19.241Z,979.58
2019-03-15T11:38:19.334Z,979.58
2019-03-15T11:39:19.425Z,979.57
2019-03-15T11:40:19.719Z,979.54
2019-03-15T11:41:19.609Z,979.47
2019-03-15T11:42:19.704Z,979.46
2019-03-15T11:43:19.798Z,979.47
2019-03-15T11:44:19.891Z,979.45
2019-03-15T11:45:19.974Z,979.46
2019-03-15T11:46:20.092Z,979.47
2019-03-15T11:47:20.176Z,979.43
2019-03-15T11:48:20.237Z,979.49
2019-03-15T11:49:20.333Z,979.45
2019-03-15T11:50:20.420Z,979.42
2019-03-15T11:51:20.511Z,979.42
2019-03-15T11:52:20.616Z,979.37
2019-03-15T11:53:20.704Z,979.34
2019-03-15T11:54:20.986Z,979.31
2019-03-15T11:55:20.904Z,979.33
2019-03-15T11:56:26.852Z,979.38
2019-03-15T11:57:21.073Z,979.22
2019-03-15T11:58:21.167Z,979.31
2019-03-15T11:59:21.258Z,979.34
2019-03-15T12:00:21.356Z,979.32
2019-03-15T12:01:21.449Z,979.31
2019-03-15T12:02:21.542Z,979.28
2019-03-15T12:03:21.637Z,979.30
2019-03-15T12:04:21.725Z,979.30
2019-03-15T12:05:21.818Z,979.33
2019-03-15T12:06:21.907Z,979.29
2019-03-15T12:07:22.004Z,979.27
2019-03-15T12:08:22.098Z,979.28
2019-03-15T12:09:22.191Z,979.31
2019-03-15T12:10:22.289Z,979.26
2019-03-15T12:11:22.380Z,979.32
2019-03-15T12:12:22.471Z,979.23
2019-03-15T12:13:22.563Z,979.26
2019-03-15T12:14:22.658Z,979.24
2019-03-15T12:15:22.777Z,979.31
2019-03-15T12:16:22.887Z,979.25
2019-03-15T12:17:23.040Z,979.26
2019-03-15T12:18:23.020Z,979.28
2019-03-15T12:19:23.130Z,979.27
2019-03-15T12:20:23.202Z,979.28
2019-03-15T12:21:23.293Z,979.25
2019-03-15T12:22:23.381Z,979.26
2019-03-15T12:23:23.476Z,979.32
2019-03-15T12:24:23.565Z,979.32
2019-03-15T12:25:23.658Z,979.35
2019-03-15T12:26:23.752Z,979.34
2019-03-15T12:27:23.842Z,979.31
2019-03-15T12:28:23.932Z,979.35
2019-03-15T12:29:24.033Z,979.38
2019-03-15T12:30:24.132Z,979.31
2019-03-15T12:31:24.218Z,979.30
2019-03-15T12:32:24.311Z,979.33